sensor_id;sensor_type;location;lat;lon;timestamp;pressure;altitude;pressure_sealevel;temperature;humidity
24486;BME280;13449;49.374;8.584;2023-05-20T00:00:25;100642.59;;;13.81;60.10
24486;BME280;13449;49.374;8.584;2023-05-20T00:02:53;100640.72;;;13.72;60.40
24486;BME280;13449;49.374;8.584;2023-05-20T00:05:20;100647.13;;;13.60;61.32
24486;BME280;13449;49.374;8.584;2023-05-20T00:07:46;100649.06;;;13.58;61.49
24486;BME280;13449;49.374;8.584;2023-05-20T00:10:15;100653.44;;;13.47;62.16
24486;BME280;13449;49.374;8.584;2023-05-20T00:12:41;100651.84;;;13.35;62.66
24486;BME280;13449;49.374;8.584;2023-05-20T00:15:08;100654.34;;;13.37;62.54
24486;BME280;13449;49.374;8.584;2023-05-20T00:17:39;100659.84;;;13.45;63.06
24486;BME280;13449;49.374;8.584;2023-05-20T00:20:06;100646.22;;;13.49;62.64
24486;BME280;13449;49.374;8.584;2023-05-20T00:22:33;100654.09;;;13.61;61.87
24486;BME280;13449;49.374;8.584;2023-05-20T00:25:00;100627.97;;;13.87;61.18
24486;BME280;13449;49.374;8.584;2023-05-20T00:27:27;100631.78;;;13.94;60.96
24486;BME280;13449;49.374;8.584;2023-05-20T00:29:53;100628.59;;;14.09;60.84
24486;BME280;13449;49.374;8.584;2023-05-20T00:32:20;100621.34;;;14.12;60.72
24486;BME280;13449;49.374;8.584;2023-05-20T00:34:56;100625.84;;;14.21;60.50
24486;BME280;13449;49.374;8.584;2023-05-20T00:37:28;100622.50;;;14.28;60.81
24486;BME280;13449;49.374;8.584;2023-05-20T00:39:57;100631.56;;;14.26;60.77
24486;BME280;13449;49.374;8.584;2023-05-20T00:42:27;100626.97;;;14.28;60.85
24486;BME280;13449;49.374;8.584;2023-05-20T00:44:56;100626.69;;;14.31;60.89
24486;BME280;13449;49.374;8.584;2023-05-20T00:47:29;100623.63;;;14.26;61.15
24486;BME280;13449;49.374;8.584;2023-05-20T00:49:57;100624.41;;;14.17;61.53
24486;BME280;13449;49.374;8.584;2023-05-20T00:52:26;100629.03;;;14.15;62.59
24486;BME280;13449;49.374;8.584;2023-05-20T00:54:58;100629.44;;;14.10;61.95
24486;BME280;13449;49.374;8.584;2023-05-20T00:57:27;100625.53;;;14.04;62.76
24486;BME280;13449;49.374;8.584;2023-05-20T00:59:54;100627.44;;;13.93;62.59
24486;BME280;13449;49.374;8.584;2023-05-20T01:02:21;100622.66;;;13.77;64.30
24486;BME280;13449;49.374;8.584;2023-05-20T01:04:49;100626.56;;;13.73;63.69
24486;BME280;13449;49.374;8.584;2023-05-20T01:07:17;100623.91;;;13.73;62.88
24486;BME280;13449;49.374;8.584;2023-05-20T01:09:44;100625.81;;;13.71;62.19
24486;BME280;13449;49.374;8.584;2023-05-20T01:12:16;100629.28;;;13.62;63.67
24486;BME280;13449;49.374;8.584;2023-05-20T01:14:49;100622.31;;;13.61;62.92
24486;BME280;13449;49.374;8.584;2023-05-20T01:17:22;100629.09;;;13.54;63.36
24486;BME280;13449;49.374;8.584;2023-05-20T01:19:53;100629.38;;;13.51;63.61
24486;BME280;13449;49.374;8.584;2023-05-20T01:22:25;100621.84;;;13.56;63.61
24486;BME280;13449;49.374;8.584;2023-05-20T01:24:52;100627.53;;;13.41;65.32
24486;BME280;13449;49.374;8.584;2023-05-20T01:27:20;100625.31;;;13.46;63.97
24486;BME280;13449;49.374;8.584;2023-05-20T01:29:51;100626.84;;;13.49;64.04
24486;BME280;13449;49.374;8.584;2023-05-20T01:32:21;100627.16;;;13.56;63.83
24486;BME280;13449;49.374;8.584;2023-05-20T01:34:49;100628.47;;;13.71;63.58
24486;BME280;13449;49.374;8.584;2023-05-20T01:37:18;100632.22;;;13.68;63.65
24486;BME280;13449;49.374;8.584;2023-05-20T01:39:46;100634.66;;;13.81;63.21
24486;BME280;13449;49.374;8.584;2023-05-20T01:42:14;100632.22;;;14.08;62.98
24486;BME280;13449;49.374;8.584;2023-05-20T01:44:42;100625.53;;;14.04;62.78
24486;BME280;13449;49.374;8.584;2023-05-20T01:47:09;100623.59;;;14.06;62.36
24486;BME280;13449;49.374;8.584;2023-05-20T01:49:35;100616.63;;;14.05;62.83
24486;BME280;13449;49.374;8.584;2023-05-20T01:52:03;100620.66;;;14.09;62.90
24486;BME280;13449;49.374;8.584;2023-05-20T01:54:30;100612.28;;;14.14;62.98
24486;BME280;13449;49.374;8.584;2023-05-20T01:56:59;100614.53;;;14.19;62.96
24486;BME280;13449;49.374;8.584;2023-05-20T01:59:28;100614.94;;;14.14;62.84
24486;BME280;13449;49.374;8.584;2023-05-20T02:01:56;100614.81;;;14.16;63.31
24486;BME280;13449;49.374;8.584;2023-05-20T02:04:25;100610.19;;;14.18;62.95
24486;BME280;13449;49.374;8.584;2023-05-20T02:06:52;100613.69;;;14.08;63.25
24486;BME280;13449;49.374;8.584;2023-05-20T02:09:19;100612.41;;;13.93;63.76
24486;BME280;13449;49.374;8.584;2023-05-20T02:11:48;100608.72;;;13.85;62.96
24486;BME280;13449;49.374;8.584;2023-05-20T02:14:17;100602.84;;;13.71;62.86
24486;BME280;13449;49.374;8.584;2023-05-20T02:16:47;100604.75;;;13.60;63.55
24486;BME280;13449;49.374;8.584;2023-05-20T02:19:13;100607.22;;;13.52;63.76
24486;BME280;13449;49.374;8.584;2023-05-20T02:21:45;100608.28;;;13.39;64.51
24486;BME280;13449;49.374;8.584;2023-05-20T02:24:14;100609.34;;;13.27;64.76
24486;BME280;13449;49.374;8.584;2023-05-20T02:26:41;100599.84;;;13.25;64.05
24486;BME280;13449;49.374;8.584;2023-05-20T02:29:12;100606.03;;;13.14;65.22
24486;BME280;13449;49.374;8.584;2023-05-20T02:31:39;100607.50;;;13.07;65.18
24486;BME280;13449;49.374;8.584;2023-05-20T02:34:05;100607.06;;;13.02;66.35
24486;BME280;13449;49.374;8.584;2023-05-20T02:36:34;100607.19;;;13.00;65.50
24486;BME280;13449;49.374;8.584;2023-05-20T02:39:00;100605.53;;;12.99;65.43
24486;BME280;13449;49.374;8.584;2023-05-20T02:41:27;100597.16;;;12.94;65.51
24486;BME280;13449;49.374;8.584;2023-05-20T02:43:55;100597.38;;;12.91;65.83
24486;BME280;13449;49.374;8.584;2023-05-20T02:46:21;100595.13;;;12.86;65.23
24486;BME280;13449;49.374;8.584;2023-05-20T02:52:01;100588.72;;;12.79;66.32
24486;BME280;13449;49.374;8.584;2023-05-20T02:54:30;100589.66;;;12.78;66.26
24486;BME280;13449;49.374;8.584;2023-05-20T02:56:57;100599.78;;;12.73;66.77
24486;BME280;13449;49.374;8.584;2023-05-20T02:59:24;100592.81;;;12.72;67.30
24486;BME280;13449;49.374;8.584;2023-05-20T03:01:50;100591.41;;;12.68;66.83
24486;BME280;13449;49.374;8.584;2023-05-20T03:04:17;100600.28;;;12.67;67.09
24486;BME280;13449;49.374;8.584;2023-05-20T03:06:47;100600.56;;;12.64;67.49
24486;BME280;13449;49.374;8.584;2023-05-20T03:09:16;100588.31;;;12.63;66.29
24486;BME280;13449;49.374;8.584;2023-05-20T03:11:44;100593.81;;;12.60;66.67
24486;BME280;13449;49.374;8.584;2023-05-20T03:14:12;100594.09;;;12.57;66.97
24486;BME280;13449;49.374;8.584;2023-05-20T03:16:41;100595.06;;;12.56;67.04
24486;BME280;13449;49.374;8.584;2023-05-20T03:19:08;100587.13;;;12.56;66.81
24486;BME280;13449;49.374;8.584;2023-05-20T03:21:35;100595.31;;;12.53;66.88
24486;BME280;13449;49.374;8.584;2023-05-20T03:24:01;100596.28;;;12.52;66.91
24486;BME280;13449;49.374;8.584;2023-05-20T03:26:27;100589.56;;;12.48;66.72
24486;BME280;13449;49.374;8.584;2023-05-20T03:28:55;100591.47;;;12.46;67.38
24486;BME280;13449;49.374;8.584;2023-05-20T03:31:22;100603.00;;;12.45;67.13
24486;BME280;13449;49.374;8.584;2023-05-20T03:33:48;100601.34;;;12.44;67.21
24486;BME280;13449;49.374;8.584;2023-05-20T03:36:15;100609.53;;;12.41;68.29
24486;BME280;13449;49.374;8.584;2023-05-20T03:38:41;100607.84;;;12.40;67.48
24486;BME280;13449;49.374;8.584;2023-05-20T03:41:08;100600.19;;;12.37;67.33
24486;BME280;13449;49.374;8.584;2023-05-20T03:43:34;100604.75;;;12.35;67.54
24486;BME280;13449;49.374;8.584;2023-05-20T03:46:01;100609.06;;;12.36;68.40
24486;BME280;13449;49.374;8.584;2023-05-20T03:48:27;100605.59;;;12.35;67.40
24486;BME280;13449;49.374;8.584;2023-05-20T03:50:56;100615.31;;;12.35;67.91
24486;BME280;13449;49.374;8.584;2023-05-20T03:53:25;100613.88;;;12.30;68.29
24486;BME280;13449;49.374;8.584;2023-05-20T03:55:54;100612.19;;;12.29;68.83
24486;BME280;13449;49.374;8.584;2023-05-20T03:58:20;100617.25;;;12.33;67.51
24486;BME280;13449;49.374;8.584;2023-05-20T04:00:50;100620.59;;;12.35;67.43
24486;BME280;13449;49.374;8.584;2023-05-20T04:03:16;100598.75;;;12.33;67.27
24486;BME280;13449;49.374;8.584;2023-05-20T04:05:43;100607.25;;;12.36;67.71
24486;BME280;13449;49.374;8.584;2023-05-20T04:08:10;100598.50;;;12.36;68.13
24486;BME280;13449;49.374;8.584;2023-05-20T04:10:41;100608.22;;;12.35;67.69
24486;BME280;13449;49.374;8.584;2023-05-20T04:13:11;100617.00;;;12.36;68.91
24486;BME280;13449;49.374;8.584;2023-05-20T04:15:38;100616.75;;;12.39;68.29
24486;BME280;13449;49.374;8.584;2023-05-20T04:18:04;100612.28;;;12.39;68.26
24486;BME280;13449;49.374;8.584;2023-05-20T04:20:31;100612.88;;;12.43;67.86
24486;BME280;13449;49.374;8.584;2023-05-20T04:22:58;100611.19;;;12.42;67.35
24486;BME280;13449;49.374;8.584;2023-05-20T04:25:24;100611.91;;;12.44;67.72
24486;BME280;13449;49.374;8.584;2023-05-20T04:27:51;100610.94;;;12.45;67.89
24486;BME280;13449;49.374;8.584;2023-05-20T04:30:19;100607.34;;;12.46;67.97
24486;BME280;13449;49.374;8.584;2023-05-20T04:32:48;100599.88;;;12.51;67.24
24486;BME280;13449;49.374;8.584;2023-05-20T04:35:16;100604.34;;;12.50;67.79
24486;BME280;13449;49.374;8.584;2023-05-20T04:37:42;100605.44;;;12.48;68.48
24486;BME280;13449;49.374;8.584;2023-05-20T04:40:13;100610.19;;;12.54;68.60
24486;BME280;13449;49.374;8.584;2023-05-20T04:42:42;100610.19;;;12.54;68.09
24486;BME280;13449;49.374;8.584;2023-05-20T04:45:11;100603.69;;;12.58;67.77
24486;BME280;13449;49.374;8.584;2023-05-20T04:47:41;100606.31;;;12.58;68.09
24486;BME280;13449;49.374;8.584;2023-05-20T04:50:10;100608.84;;;12.59;67.66
24486;BME280;13449;49.374;8.584;2023-05-20T04:52:39;100602.47;;;12.62;68.29
24486;BME280;13449;49.374;8.584;2023-05-20T04:55:10;100611.13;;;12.64;68.45
24486;BME280;13449;49.374;8.584;2023-05-20T04:57:38;100599.47;;;12.67;67.81
24486;BME280;13449;49.374;8.584;2023-05-20T05:00:09;100598.34;;;12.69;68.31
24486;BME280;13449;49.374;8.584;2023-05-20T05:02:36;100600.03;;;12.70;68.36
24486;BME280;13449;49.374;8.584;2023-05-20T05:05:04;100603.13;;;12.75;68.51
24486;BME280;13449;49.374;8.584;2023-05-20T05:07:33;100603.00;;;12.77;68.90
24486;BME280;13449;49.374;8.584;2023-05-20T05:09:59;100601.91;;;12.79;68.48
24486;BME280;13449;49.374;8.584;2023-05-20T05:12:26;100600.34;;;12.77;68.42
24486;BME280;13449;49.374;8.584;2023-05-20T05:14:55;100594.81;;;12.80;68.62
24486;BME280;13449;49.374;8.584;2023-05-20T05:17:24;100592.63;;;12.85;68.25
24486;BME280;13449;49.374;8.584;2023-05-20T05:19:50;100593.19;;;12.88;68.62
24486;BME280;13449;49.374;8.584;2023-05-20T05:22:17;100591.88;;;12.94;68.36
24486;BME280;13449;49.374;8.584;2023-05-20T05:24:43;100591.72;;;12.96;68.43
24486;BME280;13449;49.374;8.584;2023-05-20T05:27:10;100582.13;;;12.95;68.82
24486;BME280;13449;49.374;8.584;2023-05-20T05:29:36;100576.31;;;13.01;68.32
24486;BME280;13449;49.374;8.584;2023-05-20T05:32:03;100581.31;;;13.04;68.77
24486;BME280;13449;49.374;8.584;2023-05-20T05:34:32;100579.84;;;13.11;68.81
24486;BME280;13449;49.374;8.584;2023-05-20T05:37:01;100570.94;;;13.12;68.48
24486;BME280;13449;49.374;8.584;2023-05-20T05:39:27;100567.25;;;13.24;68.17
24486;BME280;13449;49.374;8.584;2023-05-20T05:41:54;100573.44;;;13.34;67.93
24486;BME280;13449;49.374;8.584;2023-05-20T05:44:21;100563.00;;;13.33;68.42
24486;BME280;13449;49.374;8.584;2023-05-20T05:46:47;100561.53;;;13.49;68.50
24486;BME280;13449;49.374;8.584;2023-05-20T05:49:14;100557.13;;;13.60;68.06
24486;BME280;13449;49.374;8.584;2023-05-20T05:51:41;100557.13;;;13.69;68.14
24486;BME280;13449;49.374;8.584;2023-05-20T05:54:07;100557.16;;;13.79;67.00
24486;BME280;13449;49.374;8.584;2023-05-20T05:56:34;100556.63;;;13.85;67.51
24486;BME280;13449;49.374;8.584;2023-05-20T05:59:03;100552.88;;;13.97;67.66
24486;BME280;13449;49.374;8.584;2023-05-20T06:01:32;100560.53;;;14.00;67.52
24486;BME280;13449;49.374;8.584;2023-05-20T06:03:59;100551.38;;;14.14;66.79
24486;BME280;13449;49.374;8.584;2023-05-20T06:06:26;100549.28;;;14.18;66.81
24486;BME280;13449;49.374;8.584;2023-05-20T06:08:52;100548.44;;;14.27;66.53
24486;BME280;13449;49.374;8.584;2023-05-20T06:11:21;100557.53;;;14.44;66.74
24486;BME280;13449;49.374;8.584;2023-05-20T06:13:49;100558.94;;;14.57;67.16
24486;BME280;13449;49.374;8.584;2023-05-20T06:16:15;100558.06;;;14.66;66.75
24486;BME280;13449;49.374;8.584;2023-05-20T06:18:42;100547.63;;;14.75;66.45
24486;BME280;13449;49.374;8.584;2023-05-20T06:21:09;100557.94;;;14.78;66.03
24486;BME280;13449;49.374;8.584;2023-05-20T06:23:35;100563.91;;;14.80;65.78
24486;BME280;13449;49.374;8.584;2023-05-20T06:26:02;100562.78;;;14.92;66.12
24486;BME280;13449;49.374;8.584;2023-05-20T06:28:29;100551.19;;;15.03;65.82
24486;BME280;13449;49.374;8.584;2023-05-20T06:30:58;100553.78;;;15.12;65.90
24486;BME280;13449;49.374;8.584;2023-05-20T06:33:26;100548.63;;;15.20;65.07
24486;BME280;13449;49.374;8.584;2023-05-20T06:35:57;100547.88;;;15.28;64.78
24486;BME280;13449;49.374;8.584;2023-05-20T06:38:24;100548.13;;;15.35;66.21
24486;BME280;13449;49.374;8.584;2023-05-20T06:40:50;100550.47;;;15.47;64.82
24486;BME280;13449;49.374;8.584;2023-05-20T06:43:21;100541.06;;;15.53;63.90
24486;BME280;13449;49.374;8.584;2023-05-20T06:45:50;100538.72;;;15.50;64.27
24486;BME280;13449;49.374;8.584;2023-05-20T06:48:17;100534.63;;;15.65;64.48
24486;BME280;13449;49.374;8.584;2023-05-20T06:50:44;100531.97;;;15.65;63.77
24486;BME280;13449;49.374;8.584;2023-05-20T06:53:10;100537.03;;;15.76;64.47
24486;BME280;13449;49.374;8.584;2023-05-20T06:55:37;100527.13;;;15.78;63.39
24486;BME280;13449;49.374;8.584;2023-05-20T06:58:03;100528.34;;;15.84;63.72
24486;BME280;13449;49.374;8.584;2023-05-20T07:00:35;100531.22;;;15.91;63.84
24486;BME280;13449;49.374;8.584;2023-05-20T07:03:04;100531.00;;;16.37;64.16
24486;BME280;13449;49.374;8.584;2023-05-20T07:05:33;100516.84;;;16.72;61.84
24486;BME280;13449;49.374;8.584;2023-05-20T07:08:00;100502.56;;;16.99;61.28
24486;BME280;13449;49.374;8.584;2023-05-20T07:10:26;100502.03;;;17.22;61.19
24486;BME280;13449;49.374;8.584;2023-05-20T07:12:53;100510.59;;;17.50;60.14
24486;BME280;13449;49.374;8.584;2023-05-20T07:15:19;100499.31;;;17.64;59.42
24486;BME280;13449;49.374;8.584;2023-05-20T07:17:46;100493.91;;;17.74;58.66
24486;BME280;13449;49.374;8.584;2023-05-20T07:20:12;100487.25;;;17.78;58.49
24486;BME280;13449;49.374;8.584;2023-05-20T07:22:41;100491.56;;;17.79;57.88
24486;BME280;13449;49.374;8.584;2023-05-20T07:25:09;100484.63;;;18.02;58.30
24486;BME280;13449;49.374;8.584;2023-05-20T07:27:36;100484.63;;;18.26;58.32
24486;BME280;13449;49.374;8.584;2023-05-20T07:30:03;100484.97;;;18.40;57.99
24486;BME280;13449;49.374;8.584;2023-05-20T07:32:29;100480.28;;;18.50;57.14
24486;BME280;13449;49.374;8.584;2023-05-20T07:34:56;100473.94;;;18.59;56.35
24486;BME280;13449;49.374;8.584;2023-05-20T07:37:23;100470.47;;;18.50;56.04
24486;BME280;13449;49.374;8.584;2023-05-20T07:39:49;100475.94;;;18.73;56.12
24486;BME280;13449;49.374;8.584;2023-05-20T07:42:16;100457.63;;;18.70;55.97
24486;BME280;13449;49.374;8.584;2023-05-20T07:44:42;100450.25;;;18.80;55.02
24486;BME280;13449;49.374;8.584;2023-05-20T07:47:09;100461.19;;;19.10;56.82
24486;BME280;13449;49.374;8.584;2023-05-20T07:49:35;100452.22;;;18.87;54.65
24486;BME280;13449;49.374;8.584;2023-05-20T07:52:02;100443.16;;;19.04;55.05
24486;BME280;13449;49.374;8.584;2023-05-20T07:54:29;100443.06;;;19.28;54.98
24486;BME280;13449;49.374;8.584;2023-05-20T07:57:00;100442.25;;;19.28;55.32
24486;BME280;13449;49.374;8.584;2023-05-20T07:59:29;100439.78;;;19.49;53.16
24486;BME280;13449;49.374;8.584;2023-05-20T08:01:56;100425.59;;;19.80;53.41
24486;BME280;13449;49.374;8.584;2023-05-20T08:04:25;100438.78;;;19.58;54.35
24486;BME280;13449;49.374;8.584;2023-05-20T08:06:53;100439.09;;;19.55;54.59
24486;BME280;13449;49.374;8.584;2023-05-20T08:09:20;100430.56;;;19.60;52.45
24486;BME280;13449;49.374;8.584;2023-05-20T08:11:47;100434.84;;;19.69;53.65
24486;BME280;13449;49.374;8.584;2023-05-20T08:14:15;100436.88;;;19.67;53.58
24486;BME280;13449;49.374;8.584;2023-05-20T08:16:45;100438.41;;;19.61;54.03
24486;BME280;13449;49.374;8.584;2023-05-20T08:19:13;100430.09;;;19.79;53.81
24486;BME280;13449;49.374;8.584;2023-05-20T08:21:40;100432.50;;;19.35;54.30
24486;BME280;13449;49.374;8.584;2023-05-20T08:24:07;100437.88;;;19.66;55.50
24486;BME280;13449;49.374;8.584;2023-05-20T08:26:34;100439.97;;;19.48;54.02
24486;BME280;13449;49.374;8.584;2023-05-20T08:29:00;100436.44;;;19.55;53.87
24486;BME280;13449;49.374;8.584;2023-05-20T08:31:27;100433.69;;;19.32;53.96
24486;BME280;13449;49.374;8.584;2023-05-20T08:33:56;100441.31;;;19.43;53.81
24486;BME280;13449;49.374;8.584;2023-05-20T08:36:23;100438.78;;;19.58;54.79
24486;BME280;13449;49.374;8.584;2023-05-20T08:38:52;100432.25;;;19.61;53.17
24486;BME280;13449;49.374;8.584;2023-05-20T08:41:19;100414.91;;;19.80;52.50
24486;BME280;13449;49.374;8.584;2023-05-20T08:43:48;100419.41;;;19.79;52.73
24486;BME280;13449;49.374;8.584;2023-05-20T08:46:16;100410.34;;;20.03;52.15
24486;BME280;13449;49.374;8.584;2023-05-20T08:48:47;100401.72;;;20.16;51.88
24486;BME280;13449;49.374;8.584;2023-05-20T08:51:15;100401.72;;;20.16;51.39
24486;BME280;13449;49.374;8.584;2023-05-20T08:53:42;100385.78;;;20.08;51.82
24486;BME280;13449;49.374;8.584;2023-05-20T08:56:10;100397.53;;;20.36;52.02
24486;BME280;13449;49.374;8.584;2023-05-20T08:58:38;100389.53;;;20.51;52.11
24486;BME280;13449;49.374;8.584;2023-05-20T09:01:05;100385.59;;;20.61;51.73
24486;BME280;13449;49.374;8.584;2023-05-20T09:03:32;100389.19;;;20.69;51.43
24486;BME280;13449;49.374;8.584;2023-05-20T09:06:08;100383.78;;;20.39;51.52
24486;BME280;13449;49.374;8.584;2023-05-20T09:08:35;100386.78;;;20.44;52.09
24486;BME280;13449;49.374;8.584;2023-05-20T09:11:04;100381.44;;;20.44;51.98
24486;BME280;13449;49.374;8.584;2023-05-20T09:13:31;100387.16;;;20.56;51.91
24486;BME280;13449;49.374;8.584;2023-05-20T09:16:03;100384.75;;;20.76;51.13
24486;BME280;13449;49.374;8.584;2023-05-20T09:18:31;100383.34;;;20.65;50.65
24486;BME280;13449;49.374;8.584;2023-05-20T09:21:04;100378.63;;;20.82;50.90
24486;BME280;13449;49.374;8.584;2023-05-20T09:23:32;100373.25;;;21.11;50.39
24486;BME280;13449;49.374;8.584;2023-05-20T09:25:59;100368.00;;;21.18;49.44
24486;BME280;13449;49.374;8.584;2023-05-20T09:28:27;100371.44;;;21.48;51.53
24486;BME280;13449;49.374;8.584;2023-05-20T09:30:58;100366.38;;;21.60;49.96
24486;BME280;13449;49.374;8.584;2023-05-20T09:33:29;100358.97;;;21.62;49.18
24486;BME280;13449;49.374;8.584;2023-05-20T09:36:04;100362.75;;;21.67;49.53
24486;BME280;13449;49.374;8.584;2023-05-20T09:38:33;100357.16;;;21.90;48.57
24486;BME280;13449;49.374;8.584;2023-05-20T09:41:11;100354.03;;;22.08;48.71
24486;BME280;13449;49.374;8.584;2023-05-20T09:43:40;100351.25;;;22.23;47.62
24486;BME280;13449;49.374;8.584;2023-05-20T09:46:09;100348.88;;;22.34;47.11
24486;BME280;13449;49.374;8.584;2023-05-20T09:48:36;100348.22;;;22.04;47.38
24486;BME280;13449;49.374;8.584;2023-05-20T09:51:05;100340.00;;;22.06;47.10
24486;BME280;13449;49.374;8.584;2023-05-20T09:53:35;100341.66;;;22.35;45.95
24486;BME280;13449;49.374;8.584;2023-05-20T09:56:02;100338.28;;;22.61;45.66
24486;BME280;13449;49.374;8.584;2023-05-20T09:58:29;100338.09;;;22.69;44.43
24486;BME280;13449;49.374;8.584;2023-05-20T10:00:56;100333.31;;;22.58;44.78
24486;BME280;13449;49.374;8.584;2023-05-20T10:03:24;100348.16;;;22.54;45.74
24486;BME280;13449;49.374;8.584;2023-05-20T10:06:12;100330.69;;;22.71;44.80
24486;BME280;13449;49.374;8.584;2023-05-20T10:11:58;100318.81;;;22.52;45.33
24486;BME280;13449;49.374;8.584;2023-05-20T10:14:49;100329.66;;;22.72;44.80
24486;BME280;13449;49.374;8.584;2023-05-20T10:19:57;100319.41;;;22.82;43.76
24486;BME280;13449;49.374;8.584;2023-05-20T10:22:28;100322.34;;;22.94;45.29
24486;BME280;13449;49.374;8.584;2023-05-20T10:24:59;100318.16;;;22.85;44.34
24486;BME280;13449;49.374;8.584;2023-05-20T10:27:26;100308.97;;;22.59;44.93
24486;BME280;13449;49.374;8.584;2023-05-20T10:29:55;100299.06;;;22.66;44.00
24486;BME280;13449;49.374;8.584;2023-05-20T10:32:31;100297.34;;;22.46;45.70
24486;BME280;13449;49.374;8.584;2023-05-20T10:35:00;100297.78;;;22.56;45.90
24486;BME280;13449;49.374;8.584;2023-05-20T10:37:29;100301.75;;;22.60;45.02
24486;BME280;13449;49.374;8.584;2023-05-20T10:40:09;100299.75;;;22.40;45.20
24486;BME280;13449;49.374;8.584;2023-05-20T10:42:37;100292.38;;;22.42;44.12
24486;BME280;13449;49.374;8.584;2023-05-20T10:45:05;100295.69;;;22.51;44.81
24486;BME280;13449;49.374;8.584;2023-05-20T10:47:32;100294.03;;;22.44;45.30
24486;BME280;13449;49.374;8.584;2023-05-20T10:49:58;100286.19;;;22.49;44.69
24486;BME280;13449;49.374;8.584;2023-05-20T10:52:27;100284.81;;;22.66;44.87
24486;BME280;13449;49.374;8.584;2023-05-20T10:54:59;100286.28;;;22.68;44.40
24486;BME280;13449;49.374;8.584;2023-05-20T10:57:29;100287.63;;;22.92;44.63
24486;BME280;13449;49.374;8.584;2023-05-20T10:59:56;100274.03;;;23.14;44.15
24486;BME280;13449;49.374;8.584;2023-05-20T11:02:23;100276.56;;;23.22;42.52
24486;BME280;13449;49.374;8.584;2023-05-20T11:04:54;100265.53;;;23.04;42.69
24486;BME280;13449;49.374;8.584;2023-05-20T11:07:28;100270.28;;;22.95;43.65
24486;BME280;13449;49.374;8.584;2023-05-20T11:09:55;100276.81;;;22.79;43.92
24486;BME280;13449;49.374;8.584;2023-05-20T11:12:22;100277.31;;;23.02;43.52
24486;BME280;13449;49.374;8.584;2023-05-20T11:14:49;100281.47;;;23.12;44.39
24486;BME280;13449;49.374;8.584;2023-05-20T11:17:19;100282.72;;;23.16;44.79
24486;BME280;13449;49.374;8.584;2023-05-20T11:19:46;100275.44;;;22.96;43.85
24486;BME280;13449;49.374;8.584;2023-05-20T11:22:13;100276.44;;;22.82;44.45
24486;BME280;13449;49.374;8.584;2023-05-20T11:24:40;100285.47;;;22.75;45.01
24486;BME280;13449;49.374;8.584;2023-05-20T11:27:07;100265.22;;;22.72;44.99
24486;BME280;13449;49.374;8.584;2023-05-20T11:29:33;100267.25;;;22.63;43.55
24486;BME280;13449;49.374;8.584;2023-05-20T11:32:00;100274.63;;;22.55;43.75
24486;BME280;13449;49.374;8.584;2023-05-20T11:34:34;100276.97;;;22.23;45.27
24486;BME280;13449;49.374;8.584;2023-05-20T11:37:06;100281.56;;;22.29;45.03
24486;BME280;13449;49.374;8.584;2023-05-20T11:39:33;100278.06;;;22.35;45.74
24486;BME280;13449;49.374;8.584;2023-05-20T11:41:59;100261.88;;;22.22;44.09
24486;BME280;13449;49.374;8.584;2023-05-20T11:44:26;100260.91;;;22.30;45.91
24486;BME280;13449;49.374;8.584;2023-05-20T11:46:59;100253.81;;;22.16;45.19
24486;BME280;13449;49.374;8.584;2023-05-20T11:49:26;100259.69;;;22.32;45.69
24486;BME280;13449;49.374;8.584;2023-05-20T11:51:53;100255.41;;;22.45;46.01
24486;BME280;13449;49.374;8.584;2023-05-20T11:54:21;100253.25;;;22.75;44.74
24486;BME280;13449;49.374;8.584;2023-05-20T11:56:48;100246.34;;;23.07;44.70
24486;BME280;13449;49.374;8.584;2023-05-20T11:59:15;100231.06;;;23.40;42.33
24486;BME280;13449;49.374;8.584;2023-05-20T12:01:44;100236.47;;;23.40;44.68
24486;BME280;13449;49.374;8.584;2023-05-20T12:04:11;100233.94;;;23.19;43.04
24486;BME280;13449;49.374;8.584;2023-05-20T12:06:41;100234.38;;;23.29;42.93
24486;BME280;13449;49.374;8.584;2023-05-20T12:09:09;100238.94;;;23.28;43.59
24486;BME280;13449;49.374;8.584;2023-05-20T12:11:37;100231.06;;;23.20;42.99
24486;BME280;13449;49.374;8.584;2023-05-20T12:14:06;100228.97;;;23.02;42.55
24486;BME280;13449;49.374;8.584;2023-05-20T12:16:34;100230.63;;;23.04;43.03
24486;BME280;13449;49.374;8.584;2023-05-20T12:19:01;100233.91;;;22.99;43.66
24486;BME280;13449;49.374;8.584;2023-05-20T12:21:28;100249.53;;;22.76;44.58
24486;BME280;13449;49.374;8.584;2023-05-20T12:23:55;100241.34;;;22.90;44.64
24486;BME280;13449;49.374;8.584;2023-05-20T12:26:26;100238.34;;;22.59;44.60
24486;BME280;13449;49.374;8.584;2023-05-20T12:28:55;100230.28;;;22.65;44.57
24486;BME280;13449;49.374;8.584;2023-05-20T12:31:25;100231.00;;;22.87;44.94
24486;BME280;13449;49.374;8.584;2023-05-20T12:33:52;100235.97;;;22.90;44.65
24486;BME280;13449;49.374;8.584;2023-05-20T12:36:18;100242.13;;;22.78;44.17
24486;BME280;13449;49.374;8.584;2023-05-20T12:38:47;100221.03;;;22.81;44.77
24486;BME280;13449;49.374;8.584;2023-05-20T12:41:14;100220.50;;;22.92;43.65
24486;BME280;13449;49.374;8.584;2023-05-20T12:43:40;100233.09;;;22.98;45.15
24486;BME280;13449;49.374;8.584;2023-05-20T12:46:07;100230.44;;;23.12;45.20
24486;BME280;13449;49.374;8.584;2023-05-20T12:48:33;100232.69;;;22.88;43.98
24486;BME280;13449;49.374;8.584;2023-05-20T12:51:00;100226.47;;;23.01;44.06
24486;BME280;13449;49.374;8.584;2023-05-20T12:53:26;100221.94;;;23.01;44.27
24486;BME280;13449;49.374;8.584;2023-05-20T12:55:53;100223.22;;;23.06;44.76
24486;BME280;13449;49.374;8.584;2023-05-20T12:58:20;100209.56;;;23.14;44.00
24486;BME280;13449;49.374;8.584;2023-05-20T13:00:46;100210.38;;;23.08;44.22
24486;BME280;13449;49.374;8.584;2023-05-20T13:03:13;100221.56;;;23.05;45.61